sensor_id;sensor_type;location;lat;lon;timestamp;temperature;humidity
54202;DHT22;40108;53.152;5.844;2022-11-18T00:02:13;7.70;96.40
54202;DHT22;40108;53.152;5.844;2022-11-18T00:04:39;7.70;96.40
54202;DHT22;40108;53.152;5.844;2022-11-18T00:07:04;7.70;96.50
54202;DHT22;40108;53.152;5.844;2022-11-18T00:09:30;7.70;96.50
54202;DHT22;40108;53.152;5.844;2022-11-18T00:11:56;7.70;96.60
54202;DHT22;40108;53.152;5.844;2022-11-18T00:14:40;7.60;96.50
54202;DHT22;40108;53.152;5.844;2022-11-18T00:17:06;7.60;96.50
54202;DHT22;40108;53.152;5.844;2022-11-18T00:19:37;7.60;96.80
54202;DHT22;40108;53.152;5.844;2022-11-18T00:22:05;7.60;96.80
54202;DHT22;40108;53.152;5.844;2022-11-18T00:24:31;7.60;96.80
54202;DHT22;40108;53.152;5.844;2022-11-18T00:26:57;7.50;96.80
54202;DHT22;40108;53.152;5.844;2022-11-18T00:29:24;7.50;96.90
54202;DHT22;40108;53.152;5.844;2022-11-18T00:31:56;7.50;96.80
54202;DHT22;40108;53.152;5.844;2022-11-18T00:34:22;7.50;96.80
54202;DHT22;40108;53.152;5.844;2022-11-18T00:36:48;7.50;97.10
54202;DHT22;40108;53.152;5.844;2022-11-18T00:39:17;7.50;97.00
54202;DHT22;40108;53.152;5.844;2022-11-18T00:41:43;7.50;97.00
54202;DHT22;40108;53.152;5.844;2022-11-18T00:44:27;7.50;97.00
54202;DHT22;40108;53.152;5.844;2022-11-18T00:46:53;7.50;97.00
54202;DHT22;40108;53.152;5.844;2022-11-18T00:49:19;7.40;97.00
54202;DHT22;40108;53.152;5.844;2022-11-18T00:51:45;7.40;97.00
54202;DHT22;40108;53.152;5.844;2022-11-18T00:54:11;7.40;97.10
54202;DHT22;40108;53.152;5.844;2022-11-18T00:56:37;7.40;97.10
54202;DHT22;40108;53.152;5.844;2022-11-18T00:59:02;7.40;97.20
54202;DHT22;40108;53.152;5.844;2022-11-18T01:01:28;7.30;97.10
54202;DHT22;40108;53.152;5.844;2022-11-18T01:03:54;7.30;97.20
54202;DHT22;40108;53.152;5.844;2022-11-18T01:06:19;7.20;97.10
54202;DHT22;40108;53.152;5.844;2022-11-18T01:08:45;7.20;97.10
54202;DHT22;40108;53.152;5.844;2022-11-18T01:11:11;7.20;97.10
54202;DHT22;40108;53.152;5.844;2022-11-18T01:13:55;7.20;97.10
54202;DHT22;40108;53.152;5.844;2022-11-18T01:16:25;7.10;97.10
54202;DHT22;40108;53.152;5.844;2022-11-18T01:18:51;7.10;97.10
54202;DHT22;40108;53.152;5.844;2022-11-18T01:21:17;6.90;97.20
54202;DHT22;40108;53.152;5.844;2022-11-18T01:23:43;6.90;97.20
54202;DHT22;40108;53.152;5.844;2022-11-18T01:26:10;6.90;97.20
54202;DHT22;40108;53.152;5.844;2022-11-18T01:28:37;6.90;97.30
54202;DHT22;40108;53.152;5.844;2022-11-18T01:31:08;6.90;97.30
54202;DHT22;40108;53.152;5.844;2022-11-18T01:33:34;6.90;97.40
54202;DHT22;40108;53.152;5.844;2022-11-18T01:36:00;6.80;97.40
54202;DHT22;40108;53.152;5.844;2022-11-18T01:38:27;6.80;97.50
54202;DHT22;40108;53.152;5.844;2022-11-18T01:40:54;6.80;97.50
54202;DHT22;40108;53.152;5.844;2022-11-18T01:43:21;6.80;97.60
54202;DHT22;40108;53.152;5.844;2022-11-18T01:45:49;6.80;97.60
54202;DHT22;40108;53.152;5.844;2022-11-18T01:51:01;6.90;97.80
54202;DHT22;40108;53.152;5.844;2022-11-18T01:53:32;6.90;98.10
54202;DHT22;40108;53.152;5.844;2022-11-18T01:56:03;7.00;98.10
54202;DHT22;40108;53.152;5.844;2022-11-18T01:58:47;7.00;98.00
54202;DHT22;40108;53.152;5.844;2022-11-18T02:01:14;7.00;98.10
54202;DHT22;40108;53.152;5.844;2022-11-18T02:03:41;7.10;98.10
54202;DHT22;40108;53.152;5.844;2022-11-18T02:06:08;7.20;98.10
54202;DHT22;40108;53.152;5.844;2022-11-18T02:08:35;7.20;98.00
54202;DHT22;40108;53.152;5.844;2022-11-18T02:11:05;7.20;98.00
54202;DHT22;40108;53.152;5.844;2022-11-18T02:13:33;7.30;98.10
54202;DHT22;40108;53.152;5.844;2022-11-18T02:16:09;7.20;98.20
54202;DHT22;40108;53.152;5.844;2022-11-18T02:18:48;7.30;98.10
54202;DHT22;40108;53.152;5.844;2022-11-18T02:29:14;7.40;98.20
54202;DHT22;40108;53.152;5.844;2022-11-18T02:34:46;7.40;98.10
54202;DHT22;40108;53.152;5.844;2022-11-18T02:40:13;7.50;98.20
54202;DHT22;40108;53.152;5.844;2022-11-18T02:42:42;7.40;98.20
54202;DHT22;40108;53.152;5.844;2022-11-18T02:45:13;7.50;98.10
54202;DHT22;40108;53.152;5.844;2022-11-18T02:47:42;7.50;98.20
54202;DHT22;40108;53.152;5.844;2022-11-18T02:50:11;7.50;98.20
54202;DHT22;40108;53.152;5.844;2022-11-18T02:52:39;7.50;98.20
54202;DHT22;40108;53.152;5.844;2022-11-18T02:55:09;7.50;98.10
54202;DHT22;40108;53.152;5.844;2022-11-18T02:57:36;7.50;98.20
54202;DHT22;40108;53.152;5.844;2022-11-18T03:00:03;7.60;98.20
54202;DHT22;40108;53.152;5.844;2022-11-18T03:02:43;7.50;98.10
54202;DHT22;40108;53.152;5.844;2022-11-18T03:05:15;7.50;98.20
54202;DHT22;40108;53.152;5.844;2022-11-18T03:07:45;7.50;98.20
54202;DHT22;40108;53.152;5.844;2022-11-18T03:10:13;7.60;98.20
54202;DHT22;40108;53.152;5.844;2022-11-18T03:17:54;7.50;98.20
54202;DHT22;40108;53.152;5.844;2022-11-18T03:20:24;7.60;98.20
54202;DHT22;40108;53.152;5.844;2022-11-18T03:28:28;7.50;98.10
54202;DHT22;40108;53.152;5.844;2022-11-18T03:31:12;7.60;98.10
54202;DHT22;40108;53.152;5.844;2022-11-18T03:33:44;7.60;98.10
54202;DHT22;40108;53.152;5.844;2022-11-18T03:36:13;7.60;98.10
54202;DHT22;40108;53.152;5.844;2022-11-18T03:38:44;7.60;98.10
54202;DHT22;40108;53.152;5.844;2022-11-18T03:41:13;7.50;98.10
54202;DHT22;40108;53.152;5.844;2022-11-18T03:43:57;7.60;98.10
54202;DHT22;40108;53.152;5.844;2022-11-18T03:46:37;7.60;98.00
54202;DHT22;40108;53.152;5.844;2022-11-18T03:49:07;7.60;98.00
54202;DHT22;40108;53.152;5.844;2022-11-18T03:51:41;7.60;98.00
54202;DHT22;40108;53.152;5.844;2022-11-18T03:54:15;7.60;98.00
54202;DHT22;40108;53.152;5.844;2022-11-18T03:56:45;7.60;98.00
54202;DHT22;40108;53.152;5.844;2022-11-18T03:59:19;7.60;98.00
54202;DHT22;40108;53.152;5.844;2022-11-18T04:04:14;7.50;98.00
54202;DHT22;40108;53.152;5.844;2022-11-18T04:06:47;7.50;98.00
54202;DHT22;40108;53.152;5.844;2022-11-18T04:09:24;7.50;97.90
54202;DHT22;40108;53.152;5.844;2022-11-18T04:11:59;7.50;98.00
54202;DHT22;40108;53.152;5.844;2022-11-18T04:14:34;7.50;98.00
54202;DHT22;40108;53.152;5.844;2022-11-18T04:17:12;7.50;97.90
54202;DHT22;40108;53.152;5.844;2022-11-18T04:19:39;7.50;97.90
54202;DHT22;40108;53.152;5.844;2022-11-18T04:22:05;7.50;97.90
54202;DHT22;40108;53.152;5.844;2022-11-18T04:24:31;7.50;97.90
54202;DHT22;40108;53.152;5.844;2022-11-18T04:26:57;7.50;97.90
54202;DHT22;40108;53.152;5.844;2022-11-18T04:29:22;7.50;97.90
54202;DHT22;40108;53.152;5.844;2022-11-18T04:31:48;7.50;97.90
54202;DHT22;40108;53.152;5.844;2022-11-18T04:34:14;7.50;97.90
54202;DHT22;40108;53.152;5.844;2022-11-18T04:36:39;7.40;97.90
54202;DHT22;40108;53.152;5.844;2022-11-18T04:39:05;7.50;97.90
54202;DHT22;40108;53.152;5.844;2022-11-18T04:41:31;7.50;97.90
54202;DHT22;40108;53.152;5.844;2022-11-18T04:44:16;7.40;97.90
54202;DHT22;40108;53.152;5.844;2022-11-18T04:46:43;7.40;97.80
54202;DHT22;40108;53.152;5.844;2022-11-18T04:49:10;7.40;97.80
54202;DHT22;40108;53.152;5.844;2022-11-18T04:51:37;7.40;97.80
54202;DHT22;40108;53.152;5.844;2022-11-18T04:54:03;7.40;97.70
54202;DHT22;40108;53.152;5.844;2022-11-18T04:56:29;7.40;97.80
54202;DHT22;40108;53.152;5.844;2022-11-18T04:58:55;7.40;97.80
54202;DHT22;40108;53.152;5.844;2022-11-18T05:01:21;7.40;97.80
54202;DHT22;40108;53.152;5.844;2022-11-18T05:03:46;7.40;97.80
54202;DHT22;40108;53.152;5.844;2022-11-18T05:06:12;7.40;97.80
54202;DHT22;40108;53.152;5.844;2022-11-18T05:08:38;7.40;97.80
54202;DHT22;40108;53.152;5.844;2022-11-18T05:11:07;7.30;97.70
54202;DHT22;40108;53.152;5.844;2022-11-18T05:14:07;7.30;97.70
54202;DHT22;40108;53.152;5.844;2022-11-18T05:16:33;7.30;97.80
54202;DHT22;40108;53.152;5.844;2022-11-18T05:19:00;7.30;97.80
54202;DHT22;40108;53.152;5.844;2022-11-18T05:21:26;7.30;97.80
54202;DHT22;40108;53.152;5.844;2022-11-18T05:23:52;7.30;97.80
54202;DHT22;40108;53.152;5.844;2022-11-18T05:26:18;7.30;97.70
54202;DHT22;40108;53.152;5.844;2022-11-18T05:28:43;7.30;97.70
54202;DHT22;40108;53.152;5.844;2022-11-18T05:31:11;7.20;97.70
54202;DHT22;40108;53.152;5.844;2022-11-18T05:33:37;7.30;97.80
54202;DHT22;40108;53.152;5.844;2022-11-18T05:36:12;7.20;97.70
54202;DHT22;40108;53.152;5.844;2022-11-18T05:38:41;7.20;97.70
54202;DHT22;40108;53.152;5.844;2022-11-18T05:41:07;7.20;97.70
54202;DHT22;40108;53.152;5.844;2022-11-18T05:43:34;7.20;97.70
54202;DHT22;40108;53.152;5.844;2022-11-18T05:46:01;7.20;97.80
54202;DHT22;40108;53.152;5.844;2022-11-18T05:48:27;7.30;97.80
54202;DHT22;40108;53.152;5.844;2022-11-18T05:50:54;7.20;97.80
54202;DHT22;40108;53.152;5.844;2022-11-18T05:53:22;7.20;97.80
54202;DHT22;40108;53.152;5.844;2022-11-18T05:58:19;7.20;97.80
54202;DHT22;40108;53.152;5.844;2022-11-18T06:00:46;7.20;97.80
54202;DHT22;40108;53.152;5.844;2022-11-18T06:03:18;7.20;97.70
54202;DHT22;40108;53.152;5.844;2022-11-18T06:05:46;7.20;97.80
54202;DHT22;40108;53.152;5.844;2022-11-18T06:08:13;7.20;97.80
54202;DHT22;40108;53.152;5.844;2022-11-18T06:10:42;7.20;97.80
54202;DHT22;40108;53.152;5.844;2022-11-18T06:13:10;7.20;97.80
54202;DHT22;40108;53.152;5.844;2022-11-18T06:15:41;7.20;97.80
54202;DHT22;40108;53.152;5.844;2022-11-18T06:20:37;7.20;97.80
54202;DHT22;40108;53.152;5.844;2022-11-18T06:23:03;7.20;97.80
54202;DHT22;40108;53.152;5.844;2022-11-18T06:25:29;7.20;97.80
54202;DHT22;40108;53.152;5.844;2022-11-18T06:27:58;7.20;97.80
54202;DHT22;40108;53.152;5.844;2022-11-18T06:30:25;7.20;97.80
54202;DHT22;40108;53.152;5.844;2022-11-18T06:32:50;7.20;97.70
54202;DHT22;40108;53.152;5.844;2022-11-18T06:35:16;7.20;97.70
54202;DHT22;40108;53.152;5.844;2022-11-18T06:37:42;7.20;97.70
54202;DHT22;40108;53.152;5.844;2022-11-18T06:40:08;7.20;97.70
54202;DHT22;40108;53.152;5.844;2022-11-18T06:42:34;7.20;97.70
54202;DHT22;40108;53.152;5.844;2022-11-18T06:45:18;7.20;97.70
54202;DHT22;40108;53.152;5.844;2022-11-18T06:47:44;7.20;97.70
54202;DHT22;40108;53.152;5.844;2022-11-18T06:50:10;7.20;97.70
54202;DHT22;40108;53.152;5.844;2022-11-18T06:52:35;7.20;97.70
54202;DHT22;40108;53.152;5.844;2022-11-18T06:55:01;7.20;97.70
54202;DHT22;40108;53.152;5.844;2022-11-18T06:57:27;7.20;97.70
54202;DHT22;40108;53.152;5.844;2022-11-18T06:59:53;7.10;97.70
54202;DHT22;40108;53.152;5.844;2022-11-18T07:02:19;7.20;97.70
54202;DHT22;40108;53.152;5.844;2022-11-18T07:04:44;7.10;97.70
54202;DHT22;40108;53.152;5.844;2022-11-18T07:07:10;7.10;97.80
54202;DHT22;40108;53.152;5.844;2022-11-18T07:09:36;7.10;97.80
54202;DHT22;40108;53.152;5.844;2022-11-18T07:12:02;7.10;97.80
54202;DHT22;40108;53.152;5.844;2022-11-18T07:14:29;7.10;97.80
54202;DHT22;40108;53.152;5.844;2022-11-18T07:16:54;7.10;97.80
54202;DHT22;40108;53.152;5.844;2022-11-18T07:19:20;7.10;97.80
54202;DHT22;40108;53.152;5.844;2022-11-18T07:21:46;7.00;97.70
54202;DHT22;40108;53.152;5.844;2022-11-18T07:24:13;7.10;97.80
54202;DHT22;40108;53.152;5.844;2022-11-18T07:26:39;7.00;97.70
54202;DHT22;40108;53.152;5.844;2022-11-18T07:29:05;7.00;97.70
54202;DHT22;40108;53.152;5.844;2022-11-18T07:31:31;7.00;97.70
54202;DHT22;40108;53.152;5.844;2022-11-18T07:33:58;7.00;97.80
54202;DHT22;40108;53.152;5.844;2022-11-18T07:36:26;7.00;97.80
54202;DHT22;40108;53.152;5.844;2022-11-18T07:38:53;7.00;97.80
54202;DHT22;40108;53.152;5.844;2022-11-18T07:41:24;7.00;97.80
54202;DHT22;40108;53.152;5.844;2022-11-18T07:43:51;7.00;97.80
54202;DHT22;40108;53.152;5.844;2022-11-18T07:48:58;7.00;97.80
54202;DHT22;40108;53.152;5.844;2022-11-18T07:51:27;7.00;97.80
54202;DHT22;40108;53.152;5.844;2022-11-18T07:53:53;7.00;97.90
54202;DHT22;40108;53.152;5.844;2022-11-18T07:56:19;7.00;97.80
54202;DHT22;40108;53.152;5.844;2022-11-18T07:58:45;7.00;97.80
54202;DHT22;40108;53.152;5.844;2022-11-18T08:01:15;7.00;97.80
54202;DHT22;40108;53.152;5.844;2022-11-18T08:03:42;7.00;97.80
54202;DHT22;40108;53.152;5.844;2022-11-18T08:06:09;7.00;97.80
54202;DHT22;40108;53.152;5.844;2022-11-18T08:08:36;7.00;97.80
54202;DHT22;40108;53.152;5.844;2022-11-18T08:11:04;6.90;97.80
54202;DHT22;40108;53.152;5.844;2022-11-18T08:13:31;7.00;97.80
54202;DHT22;40108;53.152;5.844;2022-11-18T08:15:57;6.90;97.80
54202;DHT22;40108;53.152;5.844;2022-11-18T08:18:24;6.90;97.60
54202;DHT22;40108;53.152;5.844;2022-11-18T08:20:50;6.90;97.70
54202;DHT22;40108;53.152;5.844;2022-11-18T08:23:16;6.90;97.70
54202;DHT22;40108;53.152;5.844;2022-11-18T08:25:43;6.90;97.70
54202;DHT22;40108;53.152;5.844;2022-11-18T08:28:11;6.90;97.80
54202;DHT22;40108;53.152;5.844;2022-11-18T08:30:37;6.80;97.70
54202;DHT22;40108;53.152;5.844;2022-11-18T08:33:03;6.80;97.80
54202;DHT22;40108;53.152;5.844;2022-11-18T08:35:30;6.90;97.80
54202;DHT22;40108;53.152;5.844;2022-11-18T08:37:56;6.80;97.70
54202;DHT22;40108;53.152;5.844;2022-11-18T08:40:22;6.80;97.70
54202;DHT22;40108;53.152;5.844;2022-11-18T08:42:48;6.80;97.80
54202;DHT22;40108;53.152;5.844;2022-11-18T08:45:14;6.80;97.80
54202;DHT22;40108;53.152;5.844;2022-11-18T08:47:40;6.80;97.80
54202;DHT22;40108;53.152;5.844;2022-11-18T08:50:09;6.80;97.80
54202;DHT22;40108;53.152;5.844;2022-11-18T08:52:34;6.80;97.80
54202;DHT22;40108;53.152;5.844;2022-11-18T08:55:00;6.80;97.70
54202;DHT22;40108;53.152;5.844;2022-11-18T08:57:26;6.80;97.80
54202;DHT22;40108;53.152;5.844;2022-11-18T08:59:52;6.80;97.60
54202;DHT22;40108;53.152;5.844;2022-11-18T09:02:20;6.80;97.60
54202;DHT22;40108;53.152;5.844;2022-11-18T09:04:47;6.80;97.60
54202;DHT22;40108;53.152;5.844;2022-11-18T09:07:13;6.80;97.60
54202;DHT22;40108;53.152;5.844;2022-11-18T09:09:38;6.80;97.50
54202;DHT22;40108;53.152;5.844;2022-11-18T09:12:04;6.80;97.30
54202;DHT22;40108;53.152;5.844;2022-11-18T09:14:30;6.80;97.50
54202;DHT22;40108;53.152;5.844;2022-11-18T09:16:56;6.80;97.50
54202;DHT22;40108;53.152;5.844;2022-11-18T09:19:22;6.80;97.40
54202;DHT22;40108;53.152;5.844;2022-11-18T09:21:47;6.80;97.30
54202;DHT22;40108;53.152;5.844;2022-11-18T09:24:13;6.90;97.40
54202;DHT22;40108;53.152;5.844;2022-11-18T09:26:39;6.90;97.40
54202;DHT22;40108;53.152;5.844;2022-11-18T09:29:05;6.90;97.40
54202;DHT22;40108;53.152;5.844;2022-11-18T09:31:33;6.90;97.30
54202;DHT22;40108;53.152;5.844;2022-11-18T09:33:58;6.90;97.30
54202;DHT22;40108;53.152;5.844;2022-11-18T09:36:25;6.90;97.30
54202;DHT22;40108;53.152;5.844;2022-11-18T09:38:52;6.90;97.20
54202;DHT22;40108;53.152;5.844;2022-11-18T09:49:29;7.00;97.20
54202;DHT22;40108;53.152;5.844;2022-11-18T09:51:56;7.00;97.10
54202;DHT22;40108;53.152;5.844;2022-11-18T09:54:29;7.00;97.00
54202;DHT22;40108;53.152;5.844;2022-11-18T09:56:56;7.00;97.00
54202;DHT22;40108;53.152;5.844;2022-11-18T09:59:24;7.00;96.80
54202;DHT22;40108;53.152;5.844;2022-11-18T10:01:54;7.00;97.00
54202;DHT22;40108;53.152;5.844;2022-11-18T10:04:22;7.00;97.00
54202;DHT22;40108;53.152;5.844;2022-11-18T10:06:48;7.00;96.80
54202;DHT22;40108;53.152;5.844;2022-11-18T10:09:26;6.90;96.80
54202;DHT22;40108;53.152;5.844;2022-11-18T10:23:03;6.90;96.70
54202;DHT22;40108;53.152;5.844;2022-11-18T10:25:31;6.80;96.60
54202;DHT22;40108;53.152;5.844;2022-11-18T10:28:12;6.80;96.60
54202;DHT22;40108;53.152;5.844;2022-11-18T10:30:39;6.90;96.70
54202;DHT22;40108;53.152;5.844;2022-11-18T10:35:44;6.90;96.70
54202;DHT22;40108;53.152;5.844;2022-11-18T10:41:06;6.90;96.70
54202;DHT22;40108;53.152;5.844;2022-11-18T10:43:54;7.00;96.80
54202;DHT22;40108;53.152;5.844;2022-11-18T10:46:35;6.90;96.80
54202;DHT22;40108;53.152;5.844;2022-11-18T10:49:13;7.00;96.80
54202;DHT22;40108;53.152;5.844;2022-11-18T10:51:46;7.00;96.80
54202;DHT22;40108;53.152;5.844;2022-11-18T10:54:16;7.00;96.80
54202;DHT22;40108;53.152;5.844;2022-11-18T10:57:20;6.90;96.60
54202;DHT22;40108;53.152;5.844;2022-11-18T11:05:02;6.90;96.40
54202;DHT22;40108;53.152;5.844;2022-11-18T11:07:35;6.80;96.50
54202;DHT22;40108;53.152;5.844;2022-11-18T11:15:35;6.90;96.40
54202;DHT22;40108;53.152;5.844;2022-11-18T11:18:05;6.90;96.30
54202;DHT22;40108;53.152;5.844;2022-11-18T11:20:52;6.90;96.50
54202;DHT22;40108;53.152;5.844;2022-11-18T11:23:18;6.90;96.40
54202;DHT22;40108;53.152;5.844;2022-11-18T11:29:30;6.80;96.40
54202;DHT22;40108;53.152;5.844;2022-11-18T11:31:43;6.70;96.40
54202;DHT22;40108;53.152;5.844;2022-11-18T11:43:59;6.70;96.20
54202;DHT22;40108;53.152;5.844;2022-11-18T11:48:55;6.70;96.30
54202;DHT22;40108;53.152;5.844;2022-11-18T11:51:52;6.70;96.40
54202;DHT22;40108;53.152;5.844;2022-11-18T11:54:50;6.70;96.30
54202;DHT22;40108;53.152;5.844;2022-11-18T11:57:33;6.70;96.20
54202;DHT22;40108;53.152;5.844;2022-11-18T12:00:09;6.70;96.20
54202;DHT22;40108;53.152;5.844;2022-11-18T12:08:00;6.60;96.10
54202;DHT22;40108;53.152;5.844;2022-11-18T12:10:38;6.60;96.20
54202;DHT22;40108;53.152;5.844;2022-11-18T12:18:59;6.60;96.10
54202;DHT22;40108;53.152;5.844;2022-11-18T12:26:56;6.40;96.00
54202;DHT22;40108;53.152;5.844;2022-11-18T12:29:24;6.40;96.00
54202;DHT22;40108;53.152;5.844;2022-11-18T12:32:00;6.40;96.10
54202;DHT22;40108;53.152;5.844;2022-11-18T12:34:41;6.40;96.20
54202;DHT22;40108;53.152;5.844;2022-11-18T12:42:42;6.20;95.80
54202;DHT22;40108;53.152;5.844;2022-11-18T12:50:58;6.20;95.90
54202;DHT22;40108;53.152;5.844;2022-11-18T12:53:38;6.20;95.80
54202;DHT22;40108;53.152;5.844;2022-11-18T12:56:20;6.20;95.90
54202;DHT22;40108;53.152;5.844;2022-11-18T12:58:57;6.20;95.80
54202;DHT22;40108;53.152;5.844;2022-11-18T13:01:32;6.20;95.90
54202;DHT22;40108;53.152;5.844;2022-11-18T13:04:15;6.20;95.70
54202;DHT22;40108;53.152;5.844;2022-11-18T13:06:43;6.20;95.80
54202;DHT22;40108;53.152;5.844;2022-11-18T13:09:20;6.20;95.70
54202;DHT22;40108;53.152;5.844;2022-11-18T13:11:57;6.20;95.60
54202;DHT22;40108;53.152;5.844;2022-11-18T13:14:27;6.10;95.60
54202;DHT22;40108;53.152;5.844;2022-11-18T13:20:32;6.10;95.80
54202;DHT22;40108;53.152;5.844;2022-11-18T13:25:46;6.10;96.00
54202;DHT22;40108;53.152;5.844;2022-11-18T13:28:39;6.10;95.90
54202;DHT22;40108;53.152;5.844;2022-11-18T13:33:38;5.90;95.60
54202;DHT22;40108;53.152;5.844;2022-11-18T13:36:18;5.80;95.70
54202;DHT22;40108;53.152;5.844;2022-11-18T13:39:01;5.70;95.80
54202;DHT22;40108;53.152;5.844;2022-11-18T13:41:29;5.70;96.10
54202;DHT22;40108;53.152;5.844;2022-11-18T13:44:23;5.70;96.00
54202;DHT22;40108;53.152;5.844;2022-11-18T13:47:18;5.70;96.20
54202;DHT22;40108;53.152;5.844;2022-11-18T13:52:57;5.60;96.10
54202;DHT22;40108;53.152;5.844;2022-11-18T13:55:32;5.60;96.30
54202;DHT22;40108;53.152;5.844;2022-11-18T13:58:06;5.60;96.40
54202;DHT22;40108;53.152;5.844;2022-11-18T14:01:00;5.60;96.40
54202;DHT22;40108;53.152;5.844;2022-11-18T14:06:28;5.60;96.30
54202;DHT22;40108;53.152;5.844;2022-11-18T14:09:27;5.60;96.20
54202;DHT22;40108;53.152;5.844;2022-11-18T14:12:29;5.60;96.30
54202;DHT22;40108;53.152;5.844;2022-11-18T14:15:35;5.60;96.30
54202;DHT22;40108;53.152;5.844;2022-11-18T14:18:02;5.50;96.00
54202;DHT22;40108;53.152;5.844;2022-11-18T14:20:29;5.50;96.20
54202;DHT22;40108;53.152;5.844;2022-11-18T14:22:57;5.50;96.30
54202;DHT22;40108;53.152;5.844;2022-11-18T14:25:32;5.50;96.30
54202;DHT22;40108;53.152;5.844;2022-11-18T14:28:17;5.50;96.20
54202;DHT22;40108;53.152;5.844;2022-11-18T14:30:57;5.40;96.00
54202;DHT22;40108;53.152;5.844;2022-11-18T14:33:25;5.40;96.00
54202;DHT22;40108;53.152;5.844;2022-11-18T14:36:00;5.30;96.10
54202;DHT22;40108;53.152;5.844;2022-11-18T14:40:58;5.30;95.80
54202;DHT22;40108;53.152;5.844;2022-11-18T14:43:25;5.20;95.90
54202;DHT22;40108;53.152;5.844;2022-11-18T14:45:57;5.20;95.90
54202;DHT22;40108;53.152;5.844;2022-11-18T14:48:24;5.20;95.90
54202;DHT22;40108;53.152;5.844;2022-11-18T14:50:51;5.20;96.10
54202;DHT22;40108;53.152;5.844;2022-11-18T14:53:18;5.20;96.20
54202;DHT22;40108;53.152;5.844;2022-11-18T14:55:46;5.10;96.20
54202;DHT22;40108;53.152;5.844;2022-11-18T14:58:12;5.00;96.20
54202;DHT22;40108;53.152;5.844;2022-11-18T15:00:41;5.00;96.30
54202;DHT22;40108;53.152;5.844;2022-11-18T15:03:07;5.00;96.40
54202;DHT22;40108;53.152;5.844;2022-11-18T15:05:33;5.00;96.40
54202;DHT22;40108;53.152;5.844;2022-11-18T15:07:59;4.90;96.40
54202;DHT22;40108;53.152;5.844;2022-11-18T15:10:24;4.90;96.20
54202;DHT22;40108;53.152;5.844;2022-11-18T15:12:50;4.80;96.30
54202;DHT22;40108;53.152;5.844;2022-11-18T15:15:16;4.80;96.30
54202;DHT22;40108;53.152;5.844;2022-11-18T15:17:41;4.70;96.20
54202;DHT22;40108;53.152;5.844;2022-11-18T15:20:12;4.70;96.20
54202;DHT22;40108;53.152;5.844;2022-11-18T15:22:39;4.70;96.20
54202;DHT22;40108;53.152;5.844;2022-11-18T15:25:05;4.70;96.30
54202;DHT22;40108;53.152;5.844;2022-11-18T15:27:31;4.70;96.40
54202;DHT22;40108;53.152;5.844;2022-11-18T15:29:56;4.70;96.30
54202;DHT22;40108;53.152;5.844;2022-11-18T15:32:22;4.60;96.30
54202;DHT22;40108;53.152;5.844;2022-11-18T15:34:48;4.60;96.40
54202;DHT22;40108;53.152;5.844;2022-11-18T15:37:13;4.50;96.40
54202;DHT22;40108;53.152;5.844;2022-11-18T15:39:39;4.50;96.20
54202;DHT22;40108;53.152;5.844;2022-11-18T15:42:05;4.50;96.30
54202;DHT22;40108;53.152;5.844;2022-11-18T15:44:30;4.40;96.40
54202;DHT22;40108;53.152;5.844;2022-11-18T15:46:56;4.40;96.40
54202;DHT22;40108;53.152;5.844;2022-11-18T15:49:24;4.40;96.50
54202;DHT22;40108;53.152;5.844;2022-11-18T15:51:50;4.30;96.30
54202;DHT22;40108;53.152;5.844;2022-11-18T15:54:16;4.30;96.50
54202;DHT22;40108;53.152;5.844;2022-11-18T15:56:41;4.30;96.60
54202;DHT22;40108;53.152;5.844;2022-11-18T15:59:12;4.20;96.50
54202;DHT22;40108;53.152;5.844;2022-11-18T16:01:43;4.20;96.40
54202;DHT22;40108;53.152;5.844;2022-11-18T16:04:11;4.20;96.40
54202;DHT22;40108;53.152;5.844;2022-11-18T16:06:38;4.20;96.40
54202;DHT22;40108;53.152;5.844;2022-11-18T16:09:05;4.20;96.30
54202;DHT22;40108;53.152;5.844;2022-11-18T16:11:32;4.20;96.30
54202;DHT22;40108;53.152;5.844;2022-11-18T16:14:18;4.10;96.20
54202;DHT22;40108;53.152;5.844;2022-11-18T16:16:46;4.10;96.10
54202;DHT22;40108;53.152;5.844;2022-11-18T16:19:14;4.10;96.10
54202;DHT22;40108;53.152;5.844;2022-11-18T16:21:43;4.10;96.10
54202;DHT22;40108;53.152;5.844;2022-11-18T16:24:19;4.10;96.00
54202;DHT22;40108;53.152;5.844;2022-11-18T16:26:45;4.10;95.90
54202;DHT22;40108;53.152;5.844;2022-11-18T16:29:12;4.10;95.70
54202;DHT22;40108;53.152;5.844;2022-11-18T16:31:40;4.10;95.80
54202;DHT22;40108;53.152;5.844;2022-11-18T16:36:39;4.00;95.40
54202;DHT22;40108;53.152;5.844;2022-11-18T16:39:07;4.00;95.20
54202;DHT22;40108;53.152;5.844;2022-11-18T16:41:33;4.00;95.10
54202;DHT22;40108;53.152;5.844;2022-11-18T16:44:02;3.90;94.90
54202;DHT22;40108;53.152;5.844;2022-11-18T16:46:30;4.00;94.70
54202;DHT22;40108;53.152;5.844;2022-11-18T16:48:56;3.90;94.60
54202;DHT22;40108;53.152;5.844;2022-11-18T16:51:25;3.90;94.60
54202;DHT22;40108;53.152;5.844;2022-11-18T16:53:53;3.90;94.80
54202;DHT22;40108;53.152;5.844;2022-11-18T16:56:21;3.90;94.70
54202;DHT22;40108;53.152;5.844;2022-11-18T16:58:47;3.90;94.80
54202;DHT22;40108;53.152;5.844;2022-11-18T17:01:13;3.90;94.90
54202;DHT22;40108;53.152;5.844;2022-11-18T17:03:39;3.80;94.90
54202;DHT22;40108;53.152;5.844;2022-11-18T17:06:05;3.80;94.70
54202;DHT22;40108;53.152;5.844;2022-11-18T17:08:35;3.70;94.60
54202;DHT22;40108;53.152;5.844;2022-11-18T17:11:08;3.70;94.70
54202;DHT22;40108;53.152;5.844;2022-11-18T17:13:35;3.70;94.80
54202;DHT22;40108;53.152;5.844;2022-11-18T17:16:09;3.70;94.90
54202;DHT22;40108;53.152;5.844;2022-11-18T17:18:35;3.70;94.80
54202;DHT22;40108;53.152;5.844;2022-11-18T17:21:06;3.60;94.80
54202;DHT22;40108;53.152;5.844;2022-11-18T17:23:32;3.60;94.80
54202;DHT22;40108;53.152;5.844;2022-11-18T17:25:59;3.60;94.90
54202;DHT22;40108;53.152;5.844;2022-11-18T17:28:26;3.50;94.70
54202;DHT22;40108;53.152;5.844;2022-11-18T17:30:51;3.50;94.70
54202;DHT22;40108;53.152;5.844;2022-11-18T17:33:17;3.50;94.60
54202;DHT22;40108;53.152;5.844;2022-11-18T17:35:43;3.50;94.50
54202;DHT22;40108;53.152;5.844;2022-11-18T17:38:09;3.50;94.60
54202;DHT22;40108;53.152;5.844;2022-11-18T17:40:35;3.50;94.60
54202;DHT22;40108;53.152;5.844;2022-11-18T17:43:00;3.40;94.50
54202;DHT22;40108;53.152;5.844;2022-11-18T17:45:26;3.40;94.50
54202;DHT22;40108;53.152;5.844;2022-11-18T17:47:51;3.40;94.60
54202;DHT22;40108;53.152;5.844;2022-11-18T17:50:18;3.40;94.80
54202;DHT22;40108;53.152;5.844;2022-11-18T17:52:44;3.40;94.70
54202;DHT22;40108;53.152;5.844;2022-11-18T17:55:09;3.30;94.20
54202;DHT22;40108;53.152;5.844;2022-11-18T17:57:35;3.20;94.50
54202;DHT22;40108;53.152;5.844;2022-11-18T18:00:01;3.20;94.10
54202;DHT22;40108;53.152;5.844;2022-11-18T18:02:27;3.20;94.30
54202;DHT22;40108;53.152;5.844;2022-11-18T18:04:52;3.20;94.50
54202;DHT22;40108;53.152;5.844;2022-11-18T18:07:19;3.20;94.60
54202;DHT22;40108;53.152;5.844;2022-11-18T18:09:45;3.10;94.50
54202;DHT22;40108;53.152;5.844;2022-11-18T18:12:11;3.10;94.60
54202;DHT22;40108;53.152;5.844;2022-11-18T18:14:55;3.10;94.70
54202;DHT22;40108;53.152;5.844;2022-11-18T18:17:21;3.10;94.30